METAR Data
IDs: Format: Raw Decoded Include TAF

Data at: 1255 UTC 15 Jul 2020

KPSF 151154Z AUTO 10004KT 10SM OVC010 18/16 A3020 RMK AO2 CIG 007V012 SLP202 7//// T01830161 10183 20150 53013
KPSF 151054Z AUTO 00000KT 10SM BKN011 BKN029 18/16 A3018 RMK AO2 SLP197 T01780156
KPSF 151008Z AUTO 00000KT 10SM OVC010 17/16 A3017 RMK AO2 T01720161
KPSF 150954Z AUTO 00000KT 10SM OVC009 17/16 A3017 RMK AO2 SLP192 T01720161
KPSF 150854Z AUTO 00000KT 10SM OVC008 17/16 A3016 RMK AO2 SLP190 T01670156 53012
KPSF 150754Z AUTO 00000KT 10SM BKN007 17/16 A3013 RMK AO2 SLP181 T01670156
KPSF 150724Z AUTO 00000KT 8SM BKN008 16/15 A3013 RMK AO2 CIG 006V012 T01610150
KPSF 150711Z AUTO 00000KT 3SM BR SCT008 16/15 A3013 RMK AO2 T01560150
KPSF 150654Z AUTO 00000KT 8SM CLR 16/15 A3013 RMK AO2 SLP178 T01560150
KPSF 150643Z AUTO 04003KT 3SM BR CLR 16/15 A3013 RMK AO2 T01560150
KPSF 150633Z AUTO 00000KT 1 3/4SM BR CLR 15/14 A3013 RMK AO2 T01500144
KPSF 150554Z AUTO 00000KT 4SM BR FEW003 16/16 A3012 RMK AO2 SLP176 T01610156 10228 20156 51008
KPSF 150550Z AUTO 00000KT 3SM BR FEW003 16/16 A3012 RMK AO2
KPSF 150546Z AUTO 00000KT 1 1/4SM BR FEW003 16/16 A3012 RMK AO2 T01610156
KPSF 150539Z AUTO 00000KT 3/4SM BR VV003 16/15 A3012 RMK AO2 T01560150
KPSF 150535Z AUTO 00000KT 1 1/2SM BR FEW003 16/16 A3012 RMK AO2 T01560156
KPSF 150454Z AUTO 00000KT 10SM CLR 17/16 A3012 RMK AO2 SLP174 T01670156 402720161
KPSF 150354Z AUTO 00000KT 10SM CLR 17/16 A3011 RMK AO2 SLP171 T01720161
KPSF 150254Z AUTO 24006KT 10SM CLR 18/17 A3010 RMK AO2 SLP168 T01830167 51016
KPSF 150154Z AUTO 00000KT 10SM CLR 19/17 A3009 RMK AO2 SLP163 T01890167
KPSF 150054Z AUTO 27005KT 10SM CLR 21/16 A3007 RMK AO2 SLP158 T02060161
KPSF 142354Z AUTO 00000KT 10SM CLR 23/16 A3005 RMK AO2 SLP150 60000 T02280156 10272 20222 51017
KPSF 142254Z AUTO 30005KT 10SM CLR 23/17 A3004 RMK AO2 SLP147 T02330167
KPSF 142154Z AUTO 36003KT 10SM CLR 24/16 A3002 RMK AO2 SLP141 T02440161
KPSF 142054Z AUTO 31003KT 10SM CLR 23/17 A3000 RMK AO2 RAE08 SLP134 P0000 60000 T02280172 51006
KPSF 141954Z AUTO 33006KT 10SM -RA FEW041 SCT070 OVC100 23/17 A3000 RMK AO2 LTG DSNT N AND NE RAB04E14B47 SLP133 P0000 T02330167
KPSF 141854Z AUTO 30010KT 10SM FEW044 SCT070 OVC110 25/16 A2998 RMK AO2 LTG DSNT NW SLP127 T02500156
KPSF 141754Z AUTO 31009G15KT 10SM FEW041 SCT050 SCT100 27/16 A2998 RMK AO2 SLP123 6//// T02720161 10272 20200 51007
KPSF 141654Z AUTO 30007KT 10SM SCT034 26/16 A2997 RMK AO2 SLP122 T02560161
KPSF 141554Z AUTO 27008G15KT 10SM FEW040 23/17 A2997 RMK AO2 LTG DSNT E SLP123 T02330167
KPSF 141454Z AUTO 27007KT 10SM 22/17 A2996 RMK AO2 LTG DSNT N AND NE SLP119 6//// T02220167 50003
KPSF 141354Z AUTO 30009KT 10SM FEW017 23/17 A2997 RMK AO2 SLP121 T02280172
KPSF 141325Z AUTO 27009KT 10SM FEW002 FEW018 22/17 A2996 RMK AO2 T02220167
KPSF 141254Z AUTO 30008KT 10SM FEW034 21/17 A2996 RMK AO2 SLP120 T02110167
KPSF 141154Z AUTO 00000KT 10SM FEW010 SCT100 20/17 A2995 RMK AO2 SLP116 70005 T02000167 10200 20167 50010
KPSF 141152Z AUTO 30006KT 10SM SCT010 SCT100 20/17 A2995 RMK AO2
KPSF 141054Z AUTO 30007KT 10SM BKN010 19/16 A2994 RMK AO2 SLP112 T01890161
KPSF 140954Z AUTO 26005KT 10SM FEW010 17/16 A2992 RMK AO2 SLP105 T01720161
KPSF 140854Z AUTO 28006KT 10SM CLR 18/16 A2990 RMK AO2 SLP097 T01780156 53003
KPSF 140754Z AUTO VRB03KT 10SM CLR 18/16 A2989 RMK AO2 SLP094 T01830156
KPSF 140654Z AUTO 30005KT 10SM SCT030 BKN110 18/16 A2988 RMK AO2 SLP091 T01830161
KPSF 140554Z AUTO 25004KT 10SM BKN110 19/16 A2989 RMK AO2 SLP093 60000 T01940161 10228 20194 51004
KPSF 140454Z AUTO 27003KT 10SM OVC095 19/17 A2988 RMK AO2 SLP090 T01940167 402830172
KPSF 140354Z AUTO 30004KT 10SM SCT034 BKN070 BKN085 21/17 A2989 RMK AO2 SLP094 T02060167
KPSF 140254Z AUTO 00000KT 10SM FEW065 SCT120 21/17 A2988 RMK AO2 SLP089 60000 T02110167 51014
KPSF 140154Z AUTO 26005KT 10SM FEW065 BKN100 21/17 A2987 RMK AO2 RAE03 SLP086 P0000 T02110172